createdAt,value
2023-12-23T00:02:09.678Z,75.98
2023-12-23T00:04:36.245Z,75.82
2023-12-23T00:07:02.758Z,76.08
2023-12-23T00:09:29.245Z,75.70
2023-12-23T00:11:55.809Z,75.71
2023-12-23T00:14:22.423Z,75.26
2023-12-23T00:16:48.950Z,75.98
2023-12-23T00:19:15.622Z,75.71
2023-12-23T00:21:42.192Z,75.70
2023-12-23T00:24:08.982Z,74.80
2023-12-23T00:26:35.457Z,75.13
2023-12-23T00:29:01.950Z,76.15
2023-12-23T00:31:28.435Z,75.82
2023-12-23T00:33:55.019Z,76.80
2023-12-23T00:36:21.541Z,76.67
2023-12-23T00:38:48.133Z,76.47
2023-12-23T00:41:14.738Z,76.06
2023-12-23T00:43:41.580Z,77.16
2023-12-23T00:46:11.499Z,76.78
2023-12-23T00:48:39.211Z,77.03
2023-12-23T00:51:06.943Z,76.68
2023-12-23T00:53:33.477Z,76.43
2023-12-23T00:56:00.698Z,76.69
2023-12-23T00:58:27.420Z,75.94
2023-12-23T01:00:54.105Z,76.48
2023-12-23T01:03:20.605Z,76.81
2023-12-23T01:05:47.112Z,75.77
2023-12-23T01:08:13.615Z,76.45
2023-12-23T01:10:40.148Z,76.71
2023-12-23T01:13:06.734Z,76.37
2023-12-23T01:15:33.536Z,75.12
2023-12-23T01:18:00.211Z,74.83
2023-12-23T01:20:26.945Z,75.05
2023-12-23T01:22:53.510Z,73.63
2023-12-23T01:25:21.655Z,73.82
2023-12-23T01:27:48.385Z,73.59
2023-12-23T01:30:15.089Z,73.42
2023-12-23T01:32:41.623Z,72.89
2023-12-23T01:35:08.602Z,73.40
2023-12-23T01:37:35.167Z,73.06
2023-12-23T01:40:01.704Z,73.15
2023-12-23T01:42:28.237Z,73.73
2023-12-23T01:44:54.716Z,73.43
2023-12-23T01:47:21.660Z,73.42
2023-12-23T01:49:49.300Z,72.75
2023-12-23T01:52:16.377Z,73.77
2023-12-23T01:54:43.166Z,73.58
2023-12-23T01:57:09.797Z,73.57
2023-12-23T01:59:36.547Z,73.18
2023-12-23T02:02:03.267Z,72.90
2023-12-23T02:04:29.887Z,72.88
2023-12-23T02:06:56.385Z,72.76
2023-12-23T02:09:23.043Z,72.21
2023-12-23T02:12:08.127Z,72.26
2023-12-23T02:14:46.441Z,73.21
2023-12-23T02:17:13.881Z,72.88
2023-12-23T02:19:40.389Z,72.62
2023-12-23T02:22:06.882Z,71.70
2023-12-23T02:24:33.624Z,71.55
2023-12-23T02:27:08.284Z,72.42
2023-12-23T02:29:34.917Z,71.86
2023-12-23T02:32:02.934Z,72.49
2023-12-23T02:34:30.337Z,72.61
2023-12-23T02:36:56.847Z,72.87
2023-12-23T02:39:23.312Z,72.62
2023-12-23T02:41:50.130Z,72.47
2023-12-23T02:44:16.692Z,71.91
2023-12-23T02:46:43.257Z,71.52
2023-12-23T02:49:09.888Z,72.79
2023-12-23T02:51:36.382Z,72.29
2023-12-23T02:54:02.882Z,72.56
2023-12-23T02:56:30.601Z,72.60
2023-12-23T02:58:57.097Z,72.49
2023-12-23T03:01:23.745Z,72.90
2023-12-23T03:03:50.229Z,73.94
2023-12-23T03:06:16.786Z,72.04
2023-12-23T03:08:43.336Z,72.36
2023-12-23T03:11:10.283Z,71.73
2023-12-23T03:13:36.817Z,71.83
2023-12-23T03:16:03.564Z,71.71
2023-12-23T03:18:30.139Z,71.44
2023-12-23T03:20:56.646Z,71.61
2023-12-23T03:23:23.404Z,71.65
2023-12-23T03:25:50.412Z,71.34
2023-12-23T03:28:17.022Z,71.38
2023-12-23T03:30:43.528Z,71.10
2023-12-23T03:33:10.159Z,70.90
2023-12-23T03:35:38.787Z,70.79
2023-12-23T03:38:05.439Z,70.17
2023-12-23T03:40:31.920Z,70.92
2023-12-23T03:42:58.391Z,70.42
2023-12-23T03:45:24.853Z,70.72
2023-12-23T03:47:51.479Z,70.55
2023-12-23T03:50:18.304Z,70.40
2023-12-23T03:52:44.950Z,70.47
2023-12-23T03:55:12.652Z,70.80
2023-12-23T03:57:39.116Z,71.21
2023-12-23T04:00:06.374Z,71.72
2023-12-23T04:02:32.837Z,71.59
2023-12-23T04:04:59.395Z,72.59
2023-12-23T04:07:25.958Z,72.92
2023-12-23T04:09:52.521Z,74.45
2023-12-23T04:12:19.010Z,74.90
2023-12-23T04:14:45.481Z,76.17
2023-12-23T04:17:12.752Z,76.09
2023-12-23T04:19:39.288Z,76.39
2023-12-23T04:22:05.773Z,77.44
2023-12-23T04:24:32.304Z,77.63
2023-12-23T04:26:58.811Z,77.91
2023-12-23T04:29:25.475Z,77.88
2023-12-23T04:31:52.098Z,77.32
2023-12-23T04:34:18.724Z,77.44
2023-12-23T04:36:45.220Z,77.59
2023-12-23T04:39:11.674Z,77.42
2023-12-23T04:41:38.186Z,77.41
2023-12-23T04:44:04.819Z,77.27
2023-12-23T04:46:31.384Z,78.41
2023-12-23T04:48:57.978Z,78.51
2023-12-23T04:51:24.536Z,78.55
2023-12-23T04:53:50.989Z,79.59
2023-12-23T04:56:17.670Z,78.63
2023-12-23T04:58:44.201Z,78.49
2023-12-23T05:01:10.777Z,78.60
2023-12-23T05:03:37.332Z,77.67
2023-12-23T05:06:04.539Z,78.18
2023-12-23T05:08:31.092Z,78.96
2023-12-23T05:10:57.602Z,77.86
2023-12-23T05:13:24.435Z,79.28
2023-12-23T05:15:51.729Z,78.78
2023-12-23T05:18:18.272Z,80.32
2023-12-23T05:20:44.855Z,80.33
2023-12-23T05:23:11.436Z,81.22
2023-12-23T05:25:38.017Z,81.26
2023-12-23T05:28:05.101Z,81.14
2023-12-23T05:30:31.684Z,81.58
2023-12-23T05:32:58.263Z,80.54
2023-12-23T05:35:24.834Z,80.70
2023-12-23T05:37:51.739Z,79.99
2023-12-23T05:40:18.314Z,79.53
2023-12-23T05:42:44.974Z,79.44
2023-12-23T05:45:11.577Z,80.00
2023-12-23T05:47:38.182Z,80.38
2023-12-23T05:50:05.470Z,81.11
2023-12-23T05:52:32.011Z,80.39
2023-12-23T05:54:58.645Z,80.22
2023-12-23T05:57:25.152Z,80.50
2023-12-23T05:59:51.662Z,80.23
2023-12-23T06:02:18.186Z,79.98
2023-12-23T06:04:44.687Z,79.69
2023-12-23T06:07:11.918Z,79.50
2023-12-23T06:09:38.438Z,79.00
2023-12-23T06:12:05.188Z,79.80
2023-12-23T06:14:32.176Z,79.67
2023-12-23T06:16:58.715Z,79.95
2023-12-23T06:19:25.268Z,80.00
2023-12-23T06:21:51.750Z,80.20
2023-12-23T06:24:18.239Z,80.87
2023-12-23T06:26:46.085Z,79.96
2023-12-23T06:29:13.258Z,80.66
2023-12-23T06:31:39.871Z,80.47
2023-12-23T06:34:06.521Z,80.76
2023-12-23T06:36:33.066Z,80.41
2023-12-23T06:38:59.533Z,81.39
2023-12-23T06:41:26.062Z,80.54
2023-12-23T06:43:53.606Z,81.62
2023-12-23T06:46:20.381Z,80.94
2023-12-23T06:48:47.050Z,81.22
2023-12-23T06:51:13.953Z,80.57
2023-12-23T06:53:40.492Z,81.72
2023-12-23T06:56:08.125Z,81.55
2023-12-23T06:58:34.967Z,82.19
2023-12-23T07:01:01.934Z,81.73
2023-12-23T07:03:28.455Z,81.22
2023-12-23T07:05:55.120Z,81.16
2023-12-23T07:08:21.728Z,81.08
2023-12-23T07:10:48.304Z,81.59
2023-12-23T07:13:14.932Z,80.50
2023-12-23T07:15:41.432Z,81.28
2023-12-23T07:18:09.042Z,80.01
2023-12-23T07:20:35.571Z,80.48
2023-12-23T07:23:02.086Z,80.04
2023-12-23T07:25:28.555Z,78.68
2023-12-23T07:27:55.074Z,78.99
2023-12-23T07:30:21.620Z,80.19
2023-12-23T07:32:48.360Z,79.88
2023-12-23T07:35:15.135Z,79.37
2023-12-23T07:37:41.937Z,78.85
2023-12-23T07:40:09.172Z,80.07
2023-12-23T07:42:35.792Z,79.70
2023-12-23T07:45:02.388Z,78.79
2023-12-23T07:47:29.241Z,79.90
2023-12-23T07:49:55.833Z,79.05
2023-12-23T07:52:22.307Z,80.09
2023-12-23T07:54:49.337Z,79.99
2023-12-23T07:57:15.853Z,80.40
2023-12-23T07:59:45.372Z,80.71
2023-12-23T08:02:12.397Z,80.11
2023-12-23T08:04:39.547Z,79.43
2023-12-23T08:07:06.061Z,79.30
2023-12-23T08:09:32.519Z,79.13
2023-12-23T08:11:59.041Z,79.40
2023-12-23T08:14:25.723Z,77.97
2023-12-23T08:16:53.291Z,78.74
2023-12-23T08:19:22.032Z,79.04
2023-12-23T08:21:49.062Z,77.51
2023-12-23T08:24:15.563Z,77.33
2023-12-23T08:26:42.085Z,76.59
2023-12-23T08:29:08.701Z,75.96
2023-12-23T08:31:35.225Z,75.59
2023-12-23T08:34:02.072Z,74.76
2023-12-23T08:36:30.238Z,75.88
2023-12-23T08:38:56.716Z,77.12
2023-12-23T08:41:23.261Z,77.62
2023-12-23T08:43:49.850Z,77.48
2023-12-23T08:46:16.743Z,77.40
2023-12-23T08:48:43.471Z,78.29
2023-12-23T08:51:09.999Z,78.27
2023-12-23T08:53:37.364Z,77.88
2023-12-23T08:56:04.444Z,78.42
2023-12-23T08:58:31.822Z,78.08
2023-12-23T09:00:58.956Z,77.55
2023-12-23T09:03:25.517Z,77.89
2023-12-23T09:05:52.152Z,77.92
2023-12-23T09:08:18.878Z,78.46
2023-12-23T09:10:45.625Z,78.35
2023-12-23T09:13:12.244Z,78.83
2023-12-23T09:15:38.981Z,79.60
2023-12-23T09:18:06.168Z,78.91
2023-12-23T09:20:33.179Z,79.61
2023-12-23T09:22:59.936Z,79.34
2023-12-23T09:25:26.599Z,79.91
2023-12-23T09:27:53.318Z,81.06
2023-12-23T09:30:19.992Z,79.82
2023-12-23T09:32:46.614Z,78.42
2023-12-23T09:35:13.174Z,79.40
2023-12-23T09:37:39.719Z,78.80
2023-12-23T09:40:06.744Z,79.06
2023-12-23T09:42:33.446Z,79.38
2023-12-23T09:45:00.073Z,78.89
2023-12-23T09:47:27.198Z,80.44
2023-12-23T09:49:53.904Z,80.63
2023-12-23T09:52:20.975Z,80.13
2023-12-23T09:54:51.581Z,80.46
2023-12-23T09:57:18.601Z,81.40
2023-12-23T09:59:45.128Z,80.92
2023-12-23T10:02:11.717Z,81.07
2023-12-23T10:04:38.238Z,81.39
2023-12-23T10:07:04.753Z,80.13
2023-12-23T10:09:31.292Z,80.61
2023-12-23T10:11:57.817Z,80.23
2023-12-23T10:14:26.815Z,79.20
2023-12-23T10:16:54.344Z,79.21
2023-12-23T10:19:21.592Z,78.01
2023-12-23T10:21:49.631Z,79.31
2023-12-23T10:24:16.165Z,78.77
2023-12-23T10:26:43.405Z,78.00
2023-12-23T10:29:11.166Z,78.28
2023-12-23T10:31:38.828Z,78.90
2023-12-23T10:34:09.568Z,77.94
2023-12-23T10:36:39.056Z,78.03
2023-12-23T10:39:14.276Z,76.78
2023-12-23T10:41:49.203Z,77.86
2023-12-23T10:44:18.060Z,77.45
2023-12-23T10:46:47.259Z,78.30
2023-12-23T10:49:14.763Z,78.14
2023-12-23T10:51:41.639Z,77.49
2023-12-23T10:54:11.541Z,78.24
2023-12-23T10:56:40.812Z,76.97
2023-12-23T10:59:08.652Z,77.70
2023-12-23T11:01:37.682Z,77.92
2023-12-23T11:04:04.320Z,77.40
2023-12-23T11:06:36.060Z,76.82
2023-12-23T11:09:03.709Z,77.31
2023-12-23T11:11:31.903Z,77.79
2023-12-23T11:13:58.751Z,79.30
2023-12-23T11:16:25.751Z,78.74
2023-12-23T11:18:55.504Z,78.96
2023-12-23T11:21:22.719Z,79.14
2023-12-23T11:23:49.762Z,78.65
2023-12-23T11:26:42.574Z,79.40
2023-12-23T11:29:13.042Z,79.18
2023-12-23T11:31:39.782Z,79.60
2023-12-23T11:34:14.734Z,78.95
2023-12-23T11:36:46.577Z,78.33
2023-12-23T11:39:14.810Z,79.67
2023-12-23T11:41:43.111Z,79.41
2023-12-23T11:44:13.148Z,78.62
2023-12-23T11:46:41.662Z,78.85
2023-12-23T11:49:10.081Z,78.67
2023-12-23T11:51:39.153Z,79.00
2023-12-23T11:54:06.038Z,78.68
2023-12-23T11:56:32.781Z,78.32
2023-12-23T11:59:02.574Z,78.10
2023-12-23T12:01:32.301Z,78.32
2023-12-23T12:03:58.856Z,77.74
2023-12-23T12:06:26.287Z,77.96
2023-12-23T12:08:55.204Z,77.92
2023-12-23T12:11:24.195Z,78.81
2023-12-23T12:13:51.018Z,78.63
2023-12-23T12:16:18.512Z,77.35
2023-12-23T12:18:45.401Z,78.34
2023-12-23T12:21:12.017Z,78.18
2023-12-23T12:23:38.646Z,78.60
2023-12-23T12:26:05.192Z,78.86
2023-12-23T12:28:32.242Z,79.25
2023-12-23T12:31:09.116Z,79.64
2023-12-23T12:33:36.997Z,78.60
2023-12-23T12:36:04.052Z,79.53
2023-12-23T12:38:30.829Z,79.98
2023-12-23T12:40:58.091Z,79.89
2023-12-23T12:43:30.474Z,80.47
2023-12-23T12:45:57.600Z,79.95
2023-12-23T12:48:24.333Z,78.69
2023-12-23T12:50:54.330Z,79.34
2023-12-23T12:53:21.019Z,80.07
2023-12-23T12:55:47.692Z,79.99
2023-12-23T12:58:14.312Z,79.25
2023-12-23T13:00:40.820Z,78.38
2023-12-23T13:03:09.202Z,78.48
2023-12-23T13:05:36.189Z,78.02
2023-12-23T13:08:03.296Z,77.30
2023-12-23T13:10:31.324Z,76.82
2023-12-23T13:12:57.820Z,76.84
2023-12-23T13:15:24.309Z,76.33
2023-12-23T13:17:51.050Z,75.87
2023-12-23T13:20:17.710Z,75.16
2023-12-23T13:22:46.856Z,75.02
2023-12-23T13:25:14.960Z,74.69
2023-12-23T13:27:41.446Z,74.28
2023-12-23T13:30:08.637Z,73.00
2023-12-23T13:32:35.525Z,73.20
2023-12-23T13:35:05.280Z,72.63
2023-12-23T13:37:32.531Z,72.03
2023-12-23T13:39:59.212Z,71.72
2023-12-23T13:42:25.983Z,72.51
2023-12-23T13:44:52.744Z,72.73
2023-12-23T13:47:19.245Z,72.20
2023-12-23T13:49:46.015Z,72.20
2023-12-23T13:52:15.216Z,72.14
2023-12-23T13:54:41.781Z,71.18
2023-12-23T13:57:09.381Z,72.30
2023-12-23T13:59:35.878Z,71.84
2023-12-23T14:02:02.522Z,72.19
2023-12-23T14:04:29.127Z,73.08
2023-12-23T14:06:55.648Z,73.11
2023-12-23T14:09:22.199Z,72.59
2023-12-23T14:11:48.654Z,73.14
2023-12-23T14:14:15.209Z,73.15
2023-12-23T14:16:41.680Z,72.29
2023-12-23T14:19:08.613Z,72.85
2023-12-23T14:21:35.126Z,72.48
2023-12-23T14:24:01.676Z,72.37
2023-12-23T14:26:28.662Z,72.53
2023-12-23T14:28:57.381Z,73.20
2023-12-23T14:31:25.085Z,73.87
2023-12-23T14:33:54.949Z,73.72
2023-12-23T14:36:21.540Z,73.53
2023-12-23T14:38:48.035Z,73.71
2023-12-23T14:41:15.393Z,73.95
2023-12-23T14:43:41.906Z,74.83
2023-12-23T14:46:09.949Z,74.54
2023-12-23T14:48:36.556Z,74.84
2023-12-23T14:51:03.206Z,74.88
2023-12-23T14:53:29.913Z,75.19
2023-12-23T14:55:56.523Z,75.84
2023-12-23T14:58:23.006Z,75.88
2023-12-23T15:00:49.558Z,75.40
2023-12-23T15:03:16.186Z,74.33
2023-12-23T15:05:42.954Z,74.72
2023-12-23T15:08:09.534Z,75.52
2023-12-23T15:10:36.188Z,75.33
2023-12-23T15:13:05.427Z,75.26
2023-12-23T15:15:33.483Z,74.43
2023-12-23T15:18:00.309Z,75.25
2023-12-23T15:20:26.979Z,75.20
2023-12-23T15:22:53.846Z,73.98
2023-12-23T15:25:20.510Z,73.59
2023-12-23T15:27:47.000Z,74.11
2023-12-23T15:30:14.393Z,74.23
2023-12-23T15:32:41.235Z,75.25
2023-12-23T15:35:08.369Z,75.36
2023-12-23T15:37:35.214Z,76.35
2023-12-23T15:40:01.825Z,76.08
2023-12-23T15:42:28.329Z,76.19
2023-12-23T15:44:54.839Z,76.54
2023-12-23T15:47:21.396Z,77.22
2023-12-23T15:49:48.007Z,77.64
2023-12-23T15:52:14.544Z,77.27
2023-12-23T15:54:41.578Z,76.91
2023-12-23T15:57:08.361Z,77.41
2023-12-23T15:59:34.894Z,77.99
2023-12-23T16:02:03.587Z,77.63
2023-12-23T16:04:30.782Z,77.91
2023-12-23T16:06:57.271Z,77.42
2023-12-23T16:09:23.748Z,79.42
2023-12-23T16:11:50.693Z,78.71
2023-12-23T16:14:17.421Z,78.29
2023-12-23T16:16:43.928Z,78.09
2023-12-23T16:19:10.580Z,78.48
2023-12-23T16:21:37.293Z,76.91
2023-12-23T16:24:03.931Z,77.39
2023-12-23T16:26:30.403Z,76.97
2023-12-23T16:28:56.967Z,76.87
2023-12-23T16:31:23.559Z,76.37
2023-12-23T16:33:50.257Z,76.44
2023-12-23T16:36:16.804Z,76.16
2023-12-23T16:38:43.295Z,76.98
2023-12-23T16:41:13.395Z,76.39
2023-12-23T16:43:40.789Z,76.51
2023-12-23T16:46:09.224Z,77.41
2023-12-23T16:48:36.196Z,76.69
2023-12-23T16:51:02.865Z,76.55
2023-12-23T16:53:29.523Z,76.99
2023-12-23T16:55:56.130Z,76.69
2023-12-23T16:58:22.676Z,75.74
2023-12-23T17:00:49.211Z,75.51
2023-12-23T17:03:18.258Z,75.54
2023-12-23T17:05:45.659Z,75.61
2023-12-23T17:08:12.469Z,75.44
2023-12-23T17:10:39.001Z,75.69
2023-12-23T17:13:05.564Z,74.83
2023-12-23T17:15:32.027Z,75.09
2023-12-23T17:17:58.645Z,74.20
2023-12-23T17:20:25.416Z,75.19
2023-12-23T17:22:55.087Z,74.78
2023-12-23T17:25:22.199Z,75.08
2023-12-23T17:27:48.668Z,74.96
2023-12-23T17:30:15.451Z,74.51
2023-12-23T17:32:42.163Z,73.94
2023-12-23T17:35:10.769Z,73.83
2023-12-23T17:37:37.483Z,73.61
2023-12-23T17:40:04.282Z,73.64
2023-12-23T17:42:30.761Z,73.91
2023-12-23T17:44:57.235Z,74.61
2023-12-23T17:47:26.208Z,74.40
2023-12-23T17:49:53.002Z,74.23
2023-12-23T17:52:20.858Z,73.74
2023-12-23T17:54:48.324Z,73.87
2023-12-23T17:57:16.383Z,74.68
2023-12-23T17:59:43.581Z,74.24
2023-12-23T18:02:10.491Z,75.04
2023-12-23T18:04:37.046Z,73.85
2023-12-23T18:07:03.700Z,74.06
2023-12-23T18:09:30.211Z,73.81
2023-12-23T18:11:56.735Z,73.85
2023-12-23T18:14:23.286Z,74.26
2023-12-23T18:16:49.816Z,74.07
2023-12-23T18:19:16.337Z,74.81
2023-12-23T18:21:42.891Z,74.88
2023-12-23T18:24:09.423Z,74.23
2023-12-23T18:26:36.091Z,73.75
2023-12-23T18:29:02.778Z,73.66
2023-12-23T18:31:29.341Z,74.20
2023-12-23T18:33:56.094Z,74.10
2023-12-23T18:36:22.700Z,74.32
2023-12-23T18:38:49.197Z,74.40
2023-12-23T18:41:15.704Z,74.67
2023-12-23T18:43:42.191Z,74.44
2023-12-23T18:46:09.048Z,74.33
2023-12-23T18:48:35.808Z,73.49
2023-12-23T18:51:03.012Z,73.92
2023-12-23T18:53:29.581Z,74.53
2023-12-23T18:55:56.171Z,73.88
2023-12-23T18:58:22.654Z,74.32
2023-12-23T19:00:49.213Z,73.67
2023-12-23T19:03:16.942Z,73.93
2023-12-23T19:05:43.643Z,73.50
2023-12-23T19:08:10.480Z,74.68
2023-12-23T19:10:37.038Z,74.37
2023-12-23T19:13:03.702Z,73.74
2023-12-23T19:15:30.182Z,74.62
2023-12-23T19:17:56.980Z,74.74
2023-12-23T19:20:23.906Z,74.80
2023-12-23T19:22:50.766Z,75.38
2023-12-23T19:25:17.553Z,74.72
2023-12-23T19:27:44.025Z,75.01
2023-12-23T19:30:11.808Z,74.28
2023-12-23T19:32:41.512Z,74.50
2023-12-23T19:35:08.865Z,75.25
2023-12-23T19:37:35.796Z,75.05
2023-12-23T19:40:09.302Z,74.67
2023-12-23T19:42:36.973Z,74.08
2023-12-23T19:45:03.896Z,74.68
2023-12-23T19:47:30.508Z,74.04
2023-12-23T19:49:57.111Z,75.00
2023-12-23T19:52:23.626Z,74.80
2023-12-23T19:54:50.102Z,73.95
2023-12-23T19:57:16.865Z,74.37
2023-12-23T19:59:43.387Z,74.12
2023-12-23T20:02:09.926Z,73.48
2023-12-23T20:04:37.549Z,73.55
2023-12-23T20:07:04.117Z,73.43
2023-12-23T20:09:30.640Z,72.75
2023-12-23T20:11:58.640Z,73.21
2023-12-23T20:14:25.189Z,73.30
2023-12-23T20:16:51.818Z,73.44
2023-12-23T20:19:18.477Z,73.14
2023-12-23T20:21:45.087Z,73.69
2023-12-23T20:24:12.010Z,74.01
2023-12-23T20:26:38.898Z,73.74
2023-12-23T20:29:05.950Z,73.55
2023-12-23T20:31:32.511Z,73.65
2023-12-23T20:34:00.102Z,73.89
2023-12-23T20:36:26.633Z,73.73
2023-12-23T20:38:53.074Z,73.74
2023-12-23T20:41:19.575Z,73.88
2023-12-23T20:43:46.075Z,74.50
2023-12-23T20:46:14.057Z,74.34
2023-12-23T20:48:40.602Z,73.92
2023-12-23T20:51:09.965Z,73.52
2023-12-23T20:53:36.570Z,73.57
2023-12-23T20:56:03.960Z,74.19
2023-12-23T20:58:33.823Z,73.79
2023-12-23T21:01:01.264Z,74.70
2023-12-23T21:03:27.870Z,74.50
2023-12-23T21:05:54.496Z,75.13
2023-12-23T21:08:21.109Z,75.03
2023-12-23T21:10:47.580Z,75.21
2023-12-23T21:13:14.060Z,74.29
2023-12-23T21:15:40.539Z,75.15
2023-12-23T21:18:07.119Z,74.74
2023-12-23T21:20:33.669Z,76.04
2023-12-23T21:23:00.213Z,76.64
2023-12-23T21:25:26.728Z,76.83
2023-12-23T21:27:53.181Z,77.70
2023-12-23T21:30:19.678Z,77.99
2023-12-23T21:32:46.323Z,77.81
2023-12-23T21:35:13.005Z,77.06
2023-12-23T21:37:39.618Z,77.69
2023-12-23T21:40:06.805Z,77.55
2023-12-23T21:42:33.314Z,77.10
2023-12-23T21:44:59.804Z,76.95
2023-12-23T21:47:26.454Z,77.31
2023-12-23T21:49:53.003Z,77.35
2023-12-23T21:52:19.562Z,77.78
2023-12-23T21:54:46.079Z,78.14
2023-12-23T21:57:12.604Z,78.08
2023-12-23T21:59:39.332Z,78.33
2023-12-23T22:02:06.142Z,79.63
2023-12-23T22:04:32.712Z,78.71
2023-12-23T22:06:59.832Z,78.51
2023-12-23T22:09:26.682Z,79.36
2023-12-23T22:11:53.187Z,78.18
2023-12-23T22:14:19.706Z,77.99
2023-12-23T22:16:46.221Z,77.46
2023-12-23T22:19:12.742Z,78.85
2023-12-23T22:21:39.239Z,79.20
2023-12-23T22:24:06.966Z,79.26
2023-12-23T22:26:33.528Z,79.14
2023-12-23T22:29:00.143Z,78.03
2023-12-23T22:31:26.650Z,79.51
2023-12-23T22:33:53.473Z,78.88
2023-12-23T22:36:21.844Z,78.54
2023-12-23T22:38:50.396Z,78.09
2023-12-23T22:41:17.534Z,77.83
2023-12-23T22:43:44.082Z,77.96
2023-12-23T22:46:10.640Z,78.20
2023-12-23T22:48:37.346Z,78.39
2023-12-23T22:51:06.748Z,78.70
2023-12-23T22:53:35.828Z,78.69
2023-12-23T22:56:04.212Z,79.90
2023-12-23T22:58:32.383Z,80.63
2023-12-23T23:01:00.332Z,81.03
2023-12-23T23:03:27.639Z,79.79
2023-12-23T23:05:54.402Z,78.93
2023-12-23T23:08:21.052Z,78.85
2023-12-23T23:10:47.559Z,81.12
2023-12-23T23:13:14.033Z,81.84
2023-12-23T23:15:40.553Z,80.87
2023-12-23T23:18:07.381Z,80.70
2023-12-23T23:20:34.380Z,80.53
2023-12-23T23:23:00.946Z,80.47
2023-12-23T23:25:27.792Z,80.53
2023-12-23T23:27:54.273Z,81.57
2023-12-23T23:30:20.754Z,80.38
2023-12-23T23:32:47.377Z,79.97
2023-12-23T23:35:14.084Z,79.30
2023-12-23T23:37:41.571Z,79.48
2023-12-23T23:40:08.939Z,80.08
2023-12-23T23:42:35.540Z,79.04
2023-12-23T23:45:02.092Z,79.41
2023-12-23T23:47:28.876Z,78.50
2023-12-23T23:49:55.783Z,77.81
2023-12-23T23:52:22.459Z,78.20
2023-12-23T23:54:48.952Z,78.75
2023-12-23T23:57:17.336Z,78.54
2023-12-23T23:59:44.602Z,77.92
